Time;durP1;ratioP1;P1;durP2;ratioP2;P2;SDS_P1;SDS_P2;PMS_P1;PMS_P2;Temp;Humidity;BMP_temperature;BMP_pressure;BME280_temperature;BME280_humidity;BME280_pressure;Samples;Min_cycle;Max_cycle;Signal;HPM_P1;HPM_P2
2021/01/18 00:01:44;;;;;;;7.60;6.07;;;4.50;99.90;;;;;;5036681;28;20246;-53
2021/01/18 00:04:10;;;;;;;10.40;6.23;;;4.50;99.90;;;;;;5037052;28;20895;-53
2021/01/18 00:06:35;;;;;;;7.83;6.93;;;4.40;99.90;;;;;;5037211;28;20182;-54
2021/01/18 00:09:02;;;;;;;8.47;5.80;;;4.50;99.90;;;;;;5058642;28;20201;-53
2021/01/18 00:11:28;;;;;;;9.93;6.00;;;4.40;99.90;;;;;;5056133;28;20691;-53
2021/01/18 00:13:54;;;;;;;7.50;6.77;;;4.20;99.90;;;;;;5056169;28;20410;-53
2021/01/18 00:16:22;;;;;;;6.97;6.27;;;4.30;99.90;;;;;;5056513;28;20182;-53
2021/01/18 00:18:48;;;;;;;9.00;6.90;;;4.30;99.90;;;;;;5055973;28;20431;-53
2021/01/18 00:21:14;;;;;;;7.50;6.73;;;4.20;99.90;;;;;;5055796;28;20544;-54
2021/01/18 00:23:41;;;;;;;10.17;6.80;;;4.20;99.90;;;;;;5055766;28;20405;-54
2021/01/18 00:26:07;;;;;;;7.70;6.20;;;4.30;99.90;;;;;;5044588;28;20452;-53
2021/01/18 00:28:34;;;;;;;6.20;5.50;;;4.30;99.90;;;;;;5042837;28;20418;-53
2021/01/18 00:31:01;;;;;;;8.20;5.83;;;4.20;99.90;;;;;;5035984;28;20515;-54
2021/01/18 00:33:27;;;;;;;6.60;5.90;;;4.30;99.90;;;;;;5035455;28;20417;-53
2021/01/18 00:35:53;;;;;;;6.60;5.90;;;4.20;99.90;;;;;;5034879;28;20953;-54
2021/01/18 00:38:19;;;;;;;6.70;6.00;;;4.20;99.90;;;;;;5035239;28;20422;-56
2021/01/18 00:40:44;;;;;;;7.70;6.27;;;4.20;99.90;;;;;;5035745;28;20207;-56
2021/01/18 00:43:10;;;;;;;6.23;5.60;;;4.10;99.90;;;;;;5035409;28;20439;-53
2021/01/18 00:45:36;;;;;;;9.00;6.87;;;4.20;99.90;;;;;;5035646;28;20536;-56
2021/01/18 00:48:01;;;;;;;9.20;5.37;;;4.30;99.90;;;;;;5035486;28;20824;-55
2021/01/18 00:50:28;;;;;;;6.90;5.30;;;4.20;99.90;;;;;;5035437;28;20203;-54
2021/01/18 00:52:55;;;;;;;8.17;6.23;;;4.30;99.90;;;;;;5035817;28;20175;-55
2021/01/18 00:55:22;;;;;;;5.73;5.10;;;4.30;99.90;;;;;;5034654;28;20420;-54
2021/01/18 00:57:49;;;;;;;5.50;5.00;;;4.30;99.90;;;;;;5034818;28;20445;-54
2021/01/18 01:00:19;;;;;;;6.00;5.40;;;4.30;99.90;;;;;;5035227;28;20468;-53
2021/01/18 01:02:47;;;;;;;7.73;6.33;;;4.40;99.90;;;;;;5035615;28;20399;-56
2021/01/18 01:05:24;;;;;;;6.40;4.93;;;4.40;99.90;;;;;;5035794;28;20406;-54
2021/01/18 01:07:52;;;;;;;6.80;6.07;;;4.40;99.90;;;;;;5036123;28;20394;-54
2021/01/18 01:10:23;;;;;;;6.37;5.77;;;4.40;99.90;;;;;;5035050;28;20487;-54
2021/01/18 01:12:59;;;;;;;6.60;5.40;;;4.40;99.90;;;;;;5035364;28;20402;-55
2021/01/18 01:15:26;;;;;;;7.20;5.20;;;4.40;99.90;;;;;;5036190;28;20421;-55
2021/01/18 01:21:14;;;;;;;6.40;5.50;;;3.90;99.90;;;;;;5035690;28;20500;-57
2021/01/18 01:23:40;;;;;;;5.43;4.93;;;4.10;99.90;;;;;;5035568;28;20410;-54
2021/01/18 01:26:05;;;;;;;4.87;4.33;;;4.20;99.90;;;;;;5036165;28;20206;-53
2021/01/18 01:28:31;;;;;;;6.87;5.80;;;4.20;99.90;;;;;;5036211;28;20182;-57
2021/01/18 01:30:56;;;;;;;5.50;4.60;;;4.10;99.90;;;;;;5035630;28;20202;-54
2021/01/18 01:33:22;;;;;;;6.17;5.23;;;4.20;99.90;;;;;;5036262;28;20190;-53
2021/01/18 01:35:48;;;;;;;5.30;4.80;;;4.20;99.90;;;;;;5036267;28;20582;-53
2021/01/18 01:38:13;;;;;;;5.57;5.00;;;4.20;99.90;;;;;;5036281;28;20167;-57
2021/01/18 01:40:39;;;;;;;6.00;5.30;;;4.20;99.90;;;;;;5035992;28;20214;-57
2021/01/18 01:43:05;;;;;;;5.43;4.93;;;4.20;99.90;;;;;;5036318;28;20602;-57
2021/01/18 01:45:31;;;;;;;5.57;4.60;;;4.20;99.90;;;;;;5036286;28;20195;-55
2021/01/18 01:47:57;;;;;;;5.67;4.23;;;4.20;99.90;;;;;;5039306;28;20159;-57
2021/01/18 01:50:41;;;;;;;5.87;3.77;;;4.30;99.90;;;;;;5038585;28;20441;-53
2021/01/18 01:53:09;;;;;;;5.40;4.87;;;4.30;99.90;;;;;;5039131;28;20398;-53
2021/01/18 01:55:35;;;;;;;5.07;4.30;;;4.40;99.90;;;;;;5037984;28;20422;-55
2021/01/18 01:58:03;;;;;;;3.70;3.40;;;4.20;99.90;;;;;;5039016;28;20452;-55
2021/01/18 02:00:36;;;;;;;7.70;4.33;;;4.30;99.90;;;;;;5038984;28;20463;-53
2021/01/18 02:03:09;;;;;;;4.00;3.60;;;4.10;99.90;;;;;;5036526;28;20430;-55
2021/01/18 02:05:36;;;;;;;4.17;3.83;;;4.10;99.90;;;;;;5038959;28;20915;-54
2021/01/18 02:08:05;;;;;;;5.17;3.70;;;4.20;99.90;;;;;;5037581;28;20817;-57
2021/01/18 02:10:32;;;;;;;4.80;4.37;;;4.30;99.90;;;;;;5052487;28;20465;-54
2021/01/18 02:13:21;;;;;;;4.33;3.93;;;4.30;99.90;;;;;;5058612;28;20797;-53
2021/01/18 02:15:55;;;;;;;4.20;3.80;;;4.60;99.90;;;;;;5059290;28;20500;-54
2021/01/18 02:18:44;;;;;;;4.57;3.80;;;4.70;99.90;;;;;;5058036;28;20405;-53
2021/01/18 02:21:46;;;;;;;5.07;3.63;;;4.80;99.90;;;;;;5057862;28;20833;-54
2021/01/18 02:24:17;;;;;;;3.97;3.50;;;4.40;99.90;;;;;;5058855;28;20464;-56
2021/01/18 02:27:21;;;;;;;4.20;3.70;;;4.60;99.90;;;;;;5058611;28;20936;-53
2021/01/18 02:30:17;;;;;;;5.07;3.60;;;4.70;99.90;;;;;;5037717;28;20459;-56
2021/01/18 02:32:46;;;;;;;3.70;3.30;;;4.70;99.90;;;;;;5037227;28;20831;-54
2021/01/18 02:35:49;;;;;;;4.40;4.00;;;4.70;99.90;;;;;;5037547;28;20807;-53
2021/01/18 02:38:25;;;;;;;4.27;3.87;;;4.80;99.90;;;;;;5037828;28;20504;-52
2021/01/18 02:40:59;;;;;;;4.17;3.50;;;4.80;99.90;;;;;;5037894;28;20489;-56
2021/01/18 02:43:30;;;;;;;4.63;4.23;;;4.80;99.90;;;;;;5037142;28;20421;-56
2021/01/18 02:45:58;;;;;;;5.40;3.83;;;4.70;99.90;;;;;;5037871;28;20386;-53
2021/01/18 02:48:24;;;;;;;5.50;4.50;;;4.70;99.90;;;;;;5037272;28;20422;-56
2021/01/18 02:50:51;;;;;;;5.60;4.10;;;4.70;99.90;;;;;;5037406;28;20433;-52
2021/01/18 02:53:17;;;;;;;5.80;4.63;;;4.60;99.90;;;;;;5037794;28;20493;-53
2021/01/18 02:55:43;;;;;;;4.97;4.30;;;4.60;99.90;;;;;;5036918;28;20870;-53
2021/01/18 02:58:11;;;;;;;4.90;4.17;;;4.50;99.90;;;;;;5036257;28;20194;-53
2021/01/18 03:00:58;;;;;;;6.10;5.00;;;4.60;99.90;;;;;;5037248;28;21001;-53
2021/01/18 03:03:48;;;;;;;5.13;4.63;;;4.80;99.90;;;;;;5036857;28;20397;-53
2021/01/18 03:06:23;;;;;;;5.73;5.20;;;4.40;99.90;;;;;;5037303;28;20394;-53
2021/01/18 03:08:55;;;;;;;5.40;4.77;;;4.50;99.90;;;;;;5037418;28;20382;-54
2021/01/18 03:11:31;;;;;;;5.77;4.90;;;4.60;99.90;;;;;;5037349;28;20430;-52
2021/01/18 03:14:02;;;;;;;9.00;5.30;;;4.70;99.90;;;;;;5037141;28;20402;-55
2021/01/18 03:16:34;;;;;;;6.27;5.77;;;4.60;99.90;;;;;;5037424;28;20409;-53
2021/01/18 03:19:02;;;;;;;11.30;7.17;;;4.70;99.90;;;;;;5041703;28;20437;-55
2021/01/18 03:21:29;;;;;;;8.40;6.80;;;4.40;99.90;;;;;;5056270;28;20547;-52
2021/01/18 03:23:54;;;;;;;10.17;7.07;;;4.50;99.90;;;;;;5046116;28;20808;-52
2021/01/18 03:26:24;;;;;;;8.00;6.73;;;4.60;99.90;;;;;;5037272;28;20406;-54
2021/01/18 03:28:50;;;;;;;7.77;6.97;;;4.40;99.90;;;;;;5037342;28;20167;-52
2021/01/18 03:31:15;;;;;;;8.93;5.70;;;4.40;99.90;;;;;;5037637;28;20533;-55
2021/01/18 03:33:41;;;;;;;8.70;7.10;;;4.40;99.90;;;;;;5036900;28;20210;-52
2021/01/18 03:36:06;;;;;;;9.80;7.37;;;4.30;99.90;;;;;;5035678;28;20545;-55
2021/01/18 03:38:32;;;;;;;9.37;7.87;;;4.20;99.90;;;;;;5036016;28;20213;-54
2021/01/18 03:40:58;;;;;;;10.50;8.03;;;4.20;99.90;;;;;;5037034;28;20199;-54
2021/01/18 03:43:23;;;;;;;12.53;8.87;;;4.10;99.90;;;;;;5036972;28;20593;-52
2021/01/18 03:45:50;;;;;;;8.97;8.07;;;3.90;99.90;;;;;;5035820;28;20224;-56
2021/01/18 03:48:16;;;;;;;9.87;8.00;;;4.00;99.90;;;;;;5036471;28;20164;-54
2021/01/18 03:50:42;;;;;;;13.03;9.00;;;4.00;99.90;;;;;;5035713;28;20433;-56
2021/01/18 03:53:09;;;;;;;8.60;7.70;;;3.90;99.90;;;;;;5035152;28;20783;-54
2021/01/18 03:55:35;;;;;;;10.00;8.97;;;4.00;99.90;;;;;;5035997;28;20417;-57
2021/01/18 03:58:00;;;;;;;7.80;7.00;;;4.00;99.90;;;;;;5035289;28;20927;-53
2021/01/18 04:00:29;;;;;;;12.40;7.70;;;4.10;99.90;;;;;;5036055;28;20458;-54
2021/01/18 04:02:55;;;;;;;9.43;7.20;;;4.10;99.90;;;;;;5036508;28;20258;-54
2021/01/18 04:05:22;;;;;;;10.03;8.30;;;4.20;99.90;;;;;;5036943;28;20841;-56
2021/01/18 04:07:48;;;;;;;8.70;7.80;;;4.10;99.90;;;;;;5036230;28;20406;-54
2021/01/18 04:10:17;;;;;;;8.57;7.67;;;4.10;99.90;;;;;;5049081;28;20435;-56
2021/01/18 04:12:45;;;;;;;9.10;7.23;;;4.00;99.90;;;;;;5076171;28;20972;-52
2021/01/18 04:15:12;;;;;;;9.07;8.17;;;3.90;99.90;;;;;;5076199;28;20419;-54
2021/01/18 04:17:42;;;;;;;12.27;7.50;;;4.10;99.90;;;;;;5076902;28;20408;-55
2021/01/18 04:20:10;;;;;;;7.20;6.50;;;4.20;99.90;;;;;;5075249;28;20456;-57
2021/01/18 04:22:36;;;;;;;11.90;8.70;;;4.30;99.90;;;;;;5070998;28;20507;-56
2021/01/18 04:25:03;;;;;;;14.77;9.17;;;4.30;99.90;;;;;;5035095;28;20888;-57
2021/01/18 04:27:28;;;;;;;8.17;7.13;;;4.30;99.90;;;;;;5035247;28;20409;-54
2021/01/18 04:29:54;;;;;;;11.83;7.40;;;4.20;99.90;;;;;;5035905;28;20933;-56
2021/01/18 04:32:19;;;;;;;10.77;8.87;;;4.30;99.90;;;;;;5034910;28;20715;-55
2021/01/18 04:34:45;;;;;;;9.70;8.70;;;4.30;99.90;;;;;;5036196;28;20244;-53
2021/01/18 04:37:10;;;;;;;9.40;7.53;;;4.20;99.90;;;;;;5036021;28;20636;-55
2021/01/18 04:39:36;;;;;;;10.83;8.13;;;4.40;99.90;;;;;;5036183;28;20640;-55
2021/01/18 04:42:02;;;;;;;9.97;7.93;;;4.50;99.90;;;;;;5035854;28;20187;-54
2021/01/18 04:44:28;;;;;;;10.13;8.10;;;4.70;99.90;;;;;;5035314;28;20778;-56
2021/01/18 04:46:55;;;;;;;8.90;8.00;;;4.70;99.90;;;;;;5036228;28;20170;-56
2021/01/18 04:49:22;;;;;;;10.90;8.83;;;4.90;99.90;;;;;;5036011;28;20242;-56
2021/01/18 04:51:53;;;;;;;9.57;7.07;;;4.90;99.90;;;;;;5035707;28;20429;-55
2021/01/18 04:54:24;;;;;;;10.77;8.73;;;4.80;99.90;;;;;;5035490;28;20417;-55
2021/01/18 04:57:04;;;;;;;10.40;8.87;;;4.60;99.90;;;;;;5035455;28;20503;-55
2021/01/18 04:59:41;;;;;;;12.77;8.83;;;4.60;99.90;;;;;;5035308;28;20443;-55
2021/01/18 05:02:18;;;;;;;8.90;7.83;;;4.40;99.90;;;;;;5035688;28;20422;-55
2021/01/18 05:04:45;;;;;;;8.70;6.77;;;4.50;99.90;;;;;;5035622;28;20390;-54
2021/01/18 05:07:34;;;;;;;9.50;7.97;;;4.50;99.90;;;;;;5036443;28;20463;-53
2021/01/18 05:10:09;;;;;;;12.10;7.77;;;4.60;99.90;;;;;;5034413;28;20418;-56
2021/01/18 05:12:37;;;;;;;9.83;7.53;;;4.60;99.90;;;;;;5035605;28;20470;-53
2021/01/18 05:15:07;;;;;;;9.67;7.23;;;4.50;99.90;;;;;;5036125;28;20413;-54
2021/01/18 05:17:42;;;;;;;9.70;8.13;;;4.40;99.90;;;;;;5036028;28;20418;-53
2021/01/18 05:20:10;;;;;;;11.30;8.97;;;4.40;99.90;;;;;;5035957;28;20449;-54
2021/01/18 05:22:36;;;;;;;13.77;8.70;;;4.40;99.90;;;;;;5039140;28;20410;-55
2021/01/18 05:25:06;;;;;;;9.23;8.33;;;4.20;99.90;;;;;;5039340;28;20926;-56
2021/01/18 05:27:32;;;;;;;10.10;7.20;;;4.20;99.90;;;;;;5038636;28;20687;-56
2021/01/18 05:29:57;;;;;;;11.00;8.57;;;4.20;99.90;;;;;;5039452;28;20426;-54
2021/01/18 05:32:25;;;;;;;9.53;8.40;;;4.10;99.90;;;;;;5039611;28;20225;-54
2021/01/18 05:35:12;;;;;;;8.97;7.60;;;4.00;99.90;;;;;;5038977;28;20164;-53
2021/01/18 05:37:56;;;;;;;12.63;7.53;;;3.70;99.90;;;;;;5039475;28;20397;-56
2021/01/18 05:40:22;;;;;;;8.40;7.60;;;3.80;99.90;;;;;;5039393;28;21029;-55
2021/01/18 05:42:50;;;;;;;8.73;6.57;;;3.80;99.90;;;;;;5037623;28;20445;-53
2021/01/18 05:45:29;;;;;;;9.37;6.23;;;3.70;99.90;;;;;;5038965;28;20798;-55
2021/01/18 05:47:55;;;;;;;10.27;7.87;;;3.70;99.90;;;;;;5038791;28;20386;-53
2021/01/18 05:50:25;;;;;;;12.20;9.07;;;3.70;99.90;;;;;;5038838;28;20426;-53
2021/01/18 05:52:51;;;;;;;11.63;7.20;;;3.70;99.90;;;;;;5039470;28;20386;-56
2021/01/18 05:55:17;;;;;;;11.63;8.70;;;3.90;99.90;;;;;;5038918;28;20481;-53
2021/01/18 05:57:50;;;;;;;14.10;11.13;;;4.00;99.90;;;;;;5038716;28;20683;-53
2021/01/18 06:00:34;;;;;;;11.43;10.23;;;4.10;99.90;;;;;;5039168;28;20345;-53
2021/01/18 06:03:05;;;;;;;15.50;9.87;;;4.20;99.90;;;;;;5039045;28;20389;-52
2021/01/18 06:05:33;;;;;;;13.63;9.73;;;4.10;99.90;;;;;;5039297;28;20723;-57
2021/01/18 06:08:19;;;;;;;15.57;8.80;;;4.10;99.90;;;;;;5038556;28;20410;-56
2021/01/18 06:10:46;;;;;;;13.40;10.90;;;4.20;99.90;;;;;;5040215;28;20520;-55
2021/01/18 06:13:23;;;;;;;11.33;9.23;;;4.20;99.90;;;;;;5067616;28;20431;-54
2021/01/18 06:15:59;;;;;;;8.87;7.83;;;4.30;99.90;;;;;;5078613;28;20411;-55
2021/01/18 06:18:27;;;;;;;13.20;8.53;;;4.20;99.90;;;;;;5078543;28;20424;-54
2021/01/18 06:21:01;;;;;;;11.87;9.33;;;4.20;99.90;;;;;;5078545;28;20463;-57
2021/01/18 06:23:27;;;;;;;11.03;9.93;;;4.30;99.90;;;;;;5078606;28;20401;-56
2021/01/18 06:25:54;;;;;;;10.13;9.07;;;4.30;99.90;;;;;;5078845;28;20508;-56
2021/01/18 06:28:41;;;;;;;10.57;9.47;;;4.40;99.90;;;;;;5065097;28;20406;-57
2021/01/18 06:31:09;;;;;;;10.10;8.30;;;4.40;99.90;;;;;;5039009;28;20504;-56
2021/01/18 06:33:42;;;;;;;13.10;10.77;;;4.30;99.90;;;;;;5037592;28;20447;-53
2021/01/18 06:36:14;;;;;;;12.70;9.93;;;4.40;99.90;;;;;;5037686;28;20489;-55
2021/01/18 06:38:43;;;;;;;11.57;7.63;;;4.40;99.90;;;;;;5038515;28;20402;-56
2021/01/18 06:41:09;;;;;;;10.30;7.40;;;4.30;99.90;;;;;;5038239;28;20464;-55
2021/01/18 06:43:36;;;;;;;12.07;8.17;;;4.40;99.90;;;;;;5038321;28;20398;-56
2021/01/18 06:46:35;;;;;;;10.83;8.80;;;4.30;99.90;;;;;;5038430;28;20769;-56
2021/01/18 06:49:02;;;;;;;11.50;8.73;;;4.30;99.90;;;;;;5026348;28;20414;-54
2021/01/18 06:51:28;;;;;;;16.13;10.17;;;4.30;99.90;;;;;;5038004;28;20422;-57
2021/01/18 06:53:56;;;;;;;8.63;7.27;;;4.30;99.90;;;;;;5036859;28;20418;-54
2021/01/18 06:56:21;;;;;;;11.10;8.27;;;4.30;99.90;;;;;;5037985;28;20426;-55
2021/01/18 06:59:09;;;;;;;6.53;5.87;;;4.40;99.90;;;;;;5036406;28;20429;-54
2021/01/18 07:01:37;;;;;;;10.83;6.47;;;4.40;99.90;;;;;;5037414;28;20277;-54
2021/01/18 07:04:10;;;;;;;9.00;6.40;;;4.20;99.90;;;;;;5043358;28;20417;-54
2021/01/18 07:06:37;;;;;;;13.60;7.87;;;4.20;99.90;;;;;;5057282;28;20401;-54
2021/01/18 07:09:09;;;;;;;9.80;6.83;;;4.10;99.90;;;;;;5057251;28;20433;-53
2021/01/18 07:11:35;;;;;;;10.70;6.00;;;4.00;99.90;;;;;;5057877;28;20425;-53
2021/01/18 07:14:09;;;;;;;7.50;6.00;;;4.10;99.90;;;;;;5057505;28;20412;-52
2021/01/18 07:16:35;;;;;;;11.60;8.57;;;4.30;99.90;;;;;;5058158;28;20195;-54
2021/01/18 07:19:04;;;;;;;13.77;6.80;;;4.30;99.90;;;;;;5056792;28;20406;-54
2021/01/18 07:21:34;;;;;;;6.37;5.77;;;4.30;99.90;;;;;;5057332;28;20453;-55
2021/01/18 07:24:00;;;;;;;8.17;6.87;;;4.40;99.90;;;;;;5045871;28;20525;-55
2021/01/18 07:26:51;;;;;;;8.67;5.87;;;4.40;99.90;;;;;;5036976;28;20921;-53
2021/01/18 07:29:22;;;;;;;9.30;6.30;;;3.90;99.90;;;;;;5037315;28;20406;-56
2021/01/18 07:31:50;;;;;;;9.97;6.77;;;4.00;99.90;;;;;;5036782;28;20418;-56
2021/01/18 07:34:18;;;;;;;8.60;5.67;;;4.20;99.90;;;;;;5037455;28;20409;-53
2021/01/18 07:36:44;;;;;;;7.93;5.50;;;4.30;99.90;;;;;;5037219;28;20398;-55
2021/01/18 07:39:34;;;;;;;5.33;4.23;;;4.20;99.90;;;;;;5037131;28;20460;-55
2021/01/18 07:42:01;;;;;;;6.37;5.20;;;4.20;99.90;;;;;;5036557;28;20430;-56
2021/01/18 07:44:41;;;;;;;7.37;5.43;;;4.20;99.90;;;;;;5036712;28;20828;-56
2021/01/18 07:47:12;;;;;;;7.23;5.60;;;4.40;99.90;;;;;;5036927;28;20406;-53
2021/01/18 07:49:38;;;;;;;8.10;6.10;;;4.50;99.90;;;;;;5036547;28;20374;-54
2021/01/18 07:52:19;;;;;;;6.40;5.50;;;4.50;99.90;;;;;;5036377;28;20853;-53
2021/01/18 07:54:47;;;;;;;9.47;5.63;;;4.30;99.90;;;;;;5036073;28;20213;-56
2021/01/18 07:57:30;;;;;;;5.97;5.33;;;4.30;99.90;;;;;;5036380;28;20417;-53
2021/01/18 08:00:17;;;;;;;6.70;5.00;;;4.30;99.90;;;;;;5035171;28;20454;-56
2021/01/18 08:02:47;;;;;;;8.97;5.53;;;4.50;99.90;;;;;;5037032;28;20428;-55
2021/01/18 08:05:27;;;;;;;6.43;5.20;;;4.60;99.90;;;;;;5036634;28;20398;-54
2021/01/18 08:08:13;;;;;;;6.17;5.57;;;4.80;99.90;;;;;;5036759;28;20497;-54
2021/01/18 08:10:57;;;;;;;5.93;4.33;;;4.80;99.90;;;;;;5036168;28;21002;-53
2021/01/18 08:13:30;;;;;;;7.07;5.47;;;4.80;99.90;;;;;;5036217;28;20768;-56
2021/01/18 08:15:56;;;;;;;6.30;4.87;;;4.80;99.90;;;;;;5036121;28;20518;-52
2021/01/18 08:18:28;;;;;;;8.57;5.07;;;4.80;99.90;;;;;;5036519;28;20410;-56
2021/01/18 08:20:54;;;;;;;7.17;5.07;;;4.80;99.90;;;;;;5051715;28;20457;-53
2021/01/18 08:23:42;;;;;;;6.87;5.60;;;4.80;99.90;;;;;;5056244;28;20467;-56
2021/01/18 08:26:09;;;;;;;6.20;5.60;;;4.90;99.90;;;;;;5056176;28;20527;-56
2021/01/18 08:28:35;;;;;;;10.60;5.23;;;4.90;99.90;;;;;;5043540;28;20417;-55
2021/01/18 08:31:02;;;;;;;7.50;5.43;;;4.70;99.90;;;;;;5035985;28;20950;-53
2021/01/18 08:33:28;;;;;;;4.90;4.33;;;4.80;99.90;;;;;;5036023;28;20493;-53
2021/01/18 08:35:57;;;;;;;7.17;4.50;;;4.90;99.90;;;;;;5036207;28;20931;-54
2021/01/18 08:38:28;;;;;;;7.90;5.47;;;4.90;99.90;;;;;;5035355;28;20183;-54
2021/01/18 08:41:07;;;;;;;5.80;5.03;;;5.10;99.90;;;;;;5036611;28;20825;-53
2021/01/18 08:43:52;;;;;;;7.40;4.70;;;5.10;99.90;;;;;;5035631;28;20392;-54
2021/01/18 08:46:35;;;;;;;5.37;4.73;;;5.20;99.90;;;;;;5035948;28;20386;-53
2021/01/18 08:49:20;;;;;;;5.00;3.93;;;5.50;99.90;;;;;;5037048;28;20433;-53
2021/01/18 08:51:47;;;;;;;8.40;5.77;;;5.60;99.90;;;;;;5038060;28;20425;-55
2021/01/18 08:54:36;;;;;;;5.83;4.30;;;5.40;99.90;;;;;;5037885;28;20395;-54
2021/01/18 08:57:23;;;;;;;6.90;4.40;;;5.40;99.90;;;;;;5040528;28;20479;-57
2021/01/18 09:00:09;;;;;;;4.40;4.00;;;5.50;99.90;;;;;;5041243;28;20422;-57
2021/01/18 09:02:36;;;;;;;6.00;4.70;;;5.70;99.90;;;;;;5042965;28;20409;-57
2021/01/18 09:05:13;;;;;;;6.47;4.87;;;5.70;99.90;;;;;;5054064;28;20409;-54
2021/01/18 09:07:42;;;;;;;6.90;4.70;;;5.80;99.90;;;;;;5042431;28;20864;-55
2021/01/18 09:10:13;;;;;;;6.83;4.80;;;5.70;99.90;;;;;;5042790;28;20402;-55
2021/01/18 09:12:40;;;;;;;7.97;5.90;;;5.70;99.90;;;;;;5042336;28;20391;-53
2021/01/18 09:15:07;;;;;;;6.17;4.83;;;5.70;99.90;;;;;;5040674;28;20813;-53
2021/01/18 09:17:33;;;;;;;5.03;4.33;;;5.20;99.90;;;;;;5041671;28;20460;-55
2021/01/18 09:20:06;;;;;;;5.83;5.23;;;5.30;99.90;;;;;;5040533;28;20461;-54
2021/01/18 09:22:33;;;;;;;5.20;4.70;;;5.60;99.90;;;;;;5039909;28;20247;-53
2021/01/18 09:24:59;;;;;;;9.33;5.27;;;5.60;99.90;;;;;;5041563;28;20907;-54
2021/01/18 09:27:25;;;;;;;4.70;4.20;;;5.70;99.90;;;;;;5041542;28;20402;-56
2021/01/18 09:30:15;;;;;;;5.40;4.73;;;5.70;99.90;;;;;;5040431;28;20167;-56
2021/01/18 09:32:53;;;;;;;5.07;4.57;;;5.80;99.90;;;;;;5042313;28;20412;-54
2021/01/18 09:35:18;;;;;;;6.73;4.47;;;6.00;99.90;;;;;;5041951;28;20480;-57
2021/01/18 09:37:46;;;;;;;8.13;5.53;;;6.10;99.90;;;;;;5036602;28;20523;-57
2021/01/18 09:40:13;;;;;;;10.93;5.83;;;5.70;99.90;;;;;;5036516;28;20195;-57
2021/01/18 09:42:40;;;;;;;6.60;4.90;;;5.40;99.90;;;;;;5036720;28;20447;-57
2021/01/18 09:45:09;;;;;;;7.73;5.57;;;5.40;99.90;;;;;;5036111;28;20402;-58
2021/01/18 09:47:36;;;;;;;6.07;4.67;;;5.40;99.90;;;;;;5035218;28;20493;-57
2021/01/18 09:50:22;;;;;;;7.07;4.63;;;5.60;99.90;;;;;;5036299;28;20412;-57
2021/01/18 09:52:49;;;;;;;6.43;4.47;;;5.90;99.90;;;;;;5036658;28;20797;-57
2021/01/18 09:55:25;;;;;;;6.83;5.10;;;6.10;99.90;;;;;;5036564;28;20409;-59
2021/01/18 09:58:17;;;;;;;7.10;5.67;;;6.10;99.90;;;;;;5036723;28;20505;-54
2021/01/18 10:00:45;;;;;;;6.10;5.43;;;5.60;99.90;;;;;;5036911;28;20493;-57
2021/01/18 10:03:12;;;;;;;7.83;5.43;;;5.50;99.90;;;;;;5038786;28;20434;-56
2021/01/18 10:05:43;;;;;;;10.10;5.10;;;5.50;99.90;;;;;;5038457;28;20421;-54
2021/01/18 10:08:21;;;;;;;4.40;4.00;;;5.50;99.90;;;;;;5038537;28;20459;-54
2021/01/18 10:10:48;;;;;;;6.10;4.03;;;5.50;99.90;;;;;;5039039;28;20437;-55
2021/01/18 10:13:20;;;;;;;4.90;4.17;;;5.50;99.90;;;;;;5038681;28;20410;-56
2021/01/18 10:15:47;;;;;;;5.47;4.30;;;5.60;99.90;;;;;;5038073;28;20393;-55
2021/01/18 10:18:31;;;;;;;5.50;4.50;;;5.80;99.90;;;;;;5038106;28;20409;-54
2021/01/18 10:20:59;;;;;;;6.13;3.83;;;5.80;99.90;;;;;;5038402;28;20548;-55
2021/01/18 10:23:28;;;;;;;5.50;3.90;;;5.70;99.90;;;;;;5036476;28;20398;-59
2021/01/18 10:25:54;;;;;;;6.20;4.30;;;5.80;99.90;;;;;;5035533;28;20436;-58
2021/01/18 10:28:20;;;;;;;6.67;4.80;;;5.90;99.90;;;;;;5035838;28;20980;-58
2021/01/18 10:30:47;;;;;;;7.43;4.40;;;6.00;99.90;;;;;;5049358;28;20320;-59
2021/01/18 10:33:17;;;;;;;4.87;4.00;;;6.20;99.90;;;;;;5055018;28;20416;-58
2021/01/18 10:35:44;;;;;;;4.30;3.90;;;6.20;99.90;;;;;;5055110;28;20472;-59
2021/01/18 10:38:17;;;;;;;4.47;4.07;;;6.10;99.90;;;;;;5054912;28;20409;-59
2021/01/18 10:40:59;;;;;;;5.60;4.10;;;5.90;99.90;;;;;;5055614;28;20452;-59
2021/01/18 10:43:27;;;;;;;4.60;3.70;;;6.10;99.90;;;;;;5055021;28;20473;-61
2021/01/18 10:45:52;;;;;;;5.60;4.47;;;6.40;99.90;;;;;;5055615;28;20404;-59
2021/01/18 10:48:32;;;;;;;7.80;4.00;;;6.40;99.90;;;;;;5055121;28;20405;-58
2021/01/18 10:51:02;;;;;;;6.40;4.43;;;6.40;99.90;;;;;;5054851;28;20194;-59
2021/01/18 10:53:32;;;;;;;4.47;3.70;;;6.40;99.90;;;;;;5054775;28;20415;-59
2021/01/18 10:56:18;;;;;;;4.70;4.30;;;6.80;99.90;;;;;;5055864;28;20937;-59
2021/01/18 10:58:44;;;;;;;4.93;4.40;;;7.20;99.90;;;;;;5044898;28;20429;-58
2021/01/18 11:01:11;;;;;;;8.80;5.00;;;7.10;99.90;;;;;;5034882;28;20826;-58
2021/01/18 11:03:38;;;;;;;4.33;3.60;;;7.20;99.90;;;;;;5034870;28;20168;-58
2021/01/18 11:06:17;;;;;;;4.93;4.40;;;7.50;99.90;;;;;;5035091;28;20413;-59
2021/01/18 11:08:43;;;;;;;5.60;3.97;;;7.10;99.90;;;;;;5033769;28;20820;-59
2021/01/18 11:11:29;;;;;;;6.27;4.37;;;6.90;99.90;;;;;;5034628;28;20431;-58
2021/01/18 11:14:04;;;;;;;7.63;4.77;;;6.80;99.90;;;;;;5034907;28;20497;-58
2021/01/18 11:16:30;;;;;;;5.47;4.43;;;6.90;99.90;;;;;;5033368;28;20409;-60
2021/01/18 11:19:04;;;;;;;7.43;4.67;;;6.90;99.90;;;;;;5034159;28;20410;-59
2021/01/18 11:21:30;;;;;;;7.00;4.40;;;7.00;99.90;;;;;;5035072;28;20454;-59
2021/01/18 11:23:56;;;;;;;4.83;4.27;;;7.00;99.90;;;;;;5040145;28;20868;-54
2021/01/18 11:26:25;;;;;;;7.47;3.57;;;7.20;99.90;;;;;;5040935;28;20178;-54
2021/01/18 11:28:51;;;;;;;5.00;3.77;;;7.20;99.90;;;;;;5041495;28;20498;-53
2021/01/18 11:31:17;;;;;;;5.50;4.53;;;7.00;99.90;;;;;;5041653;28;20449;-54
2021/01/18 11:33:44;;;;;;;8.00;5.40;;;7.00;99.90;;;;;;5038658;28;20449;-54
2021/01/18 11:36:13;;;;;;;7.27;5.30;;;7.00;99.90;;;;;;5037955;28;20421;-57
2021/01/18 11:38:39;;;;;;;6.67;4.83;;;7.10;99.90;;;;;;5036056;28;20423;-53
2021/01/18 11:41:05;;;;;;;4.50;4.07;;;7.10;99.90;;;;;;5036185;28;20525;-55
2021/01/18 11:43:34;;;;;;;5.53;4.57;;;7.00;99.90;;;;;;5036329;28;20493;-56
2021/01/18 11:46:03;;;;;;;5.43;4.67;;;7.10;99.90;;;;;;5036430;28;20191;-56
2021/01/18 11:48:28;;;;;;;7.43;4.63;;;6.50;99.90;;;;;;5036161;28;20749;-56
2021/01/18 11:50:55;;;;;;;5.47;4.60;;;6.60;99.90;;;;;;5036097;28;20425;-56
2021/01/18 11:53:21;;;;;;;7.20;5.60;;;6.70;99.90;;;;;;5036137;28;20237;-57
2021/01/18 11:55:50;;;;;;;5.50;4.70;;;6.60;99.90;;;;;;5036867;28;20430;-54
2021/01/18 11:58:16;;;;;;;6.63;4.83;;;6.70;99.90;;;;;;5042209;28;20187;-56
2021/01/18 12:00:42;;;;;;;4.60;3.90;;;6.60;99.90;;;;;;5035183;28;20458;-58
2021/01/18 12:03:08;;;;;;;4.83;4.00;;;6.80;99.90;;;;;;5034328;28;20171;-58
2021/01/18 12:05:33;;;;;;;5.47;4.97;;;6.60;99.90;;;;;;5033365;28;20923;-60
2021/01/18 12:08:02;;;;;;;4.40;4.00;;;6.40;99.90;;;;;;5034005;28;20402;-60
2021/01/18 12:10:28;;;;;;;8.10;5.10;;;6.30;99.90;;;;;;5034215;28;20206;-59
2021/01/18 12:12:54;;;;;;;5.23;3.80;;;6.60;99.90;;;;;;5033274;28;20421;-59
2021/01/18 12:15:19;;;;;;;4.27;3.33;;;6.70;99.90;;;;;;5034070;28;20433;-59
2021/01/18 12:17:45;;;;;;;10.53;3.93;;;6.60;99.90;;;;;;5034330;28;20453;-60
2021/01/18 12:20:19;;;;;;;7.67;4.23;;;6.70;99.90;;;;;;5034101;28;20240;-59
2021/01/18 12:22:45;;;;;;;6.33;4.33;;;7.10;99.90;;;;;;5034209;28;20166;-58
2021/01/18 12:25:12;;;;;;;11.43;5.43;;;6.80;99.90;;;;;;5035305;28;20769;-57
2021/01/18 12:27:38;;;;;;;5.10;4.57;;;6.90;99.90;;;;;;5033391;28;20171;-58
2021/01/18 12:30:05;;;;;;;5.17;3.83;;;7.00;99.90;;;;;;5034108;28;20402;-57
2021/01/18 12:32:31;;;;;;;5.97;4.07;;;6.90;99.90;;;;;;5034951;28;20640;-58
2021/01/18 12:34:57;;;;;;;5.80;4.77;;;6.80;99.90;;;;;;5033675;28;20406;-59
2021/01/18 12:37:22;;;;;;;5.90;4.53;;;6.60;99.90;;;;;;5056237;28;20530;-60
2021/01/18 12:39:48;;;;;;;6.10;4.10;;;6.70;99.90;;;;;;5073312;28;20166;-59
2021/01/18 12:42:14;;;;;;;6.53;4.67;;;6.80;99.90;;;;;;5073771;28;20546;-59
2021/01/18 12:44:39;;;;;;;4.23;3.83;;;6.70;99.90;;;;;;5073403;28;20240;-57
2021/01/18 12:47:06;;;;;;;7.30;4.47;;;6.60;99.90;;;;;;5073855;28;20618;-57
2021/01/18 12:49:32;;;;;;;4.27;3.47;;;6.50;99.90;;;;;;5074259;28;20245;-59
2021/01/18 12:51:59;;;;;;;4.10;3.70;;;6.60;99.90;;;;;;5072328;28;20799;-58
2021/01/18 12:54:24;;;;;;;5.83;4.73;;;6.40;99.90;;;;;;5073899;28;20746;-59
2021/01/18 12:56:54;;;;;;;5.90;5.10;;;6.70;99.90;;;;;;5073340;28;20439;-58
2021/01/18 12:59:19;;;;;;;6.00;4.40;;;6.90;99.90;;;;;;5042607;28;20183;-59
2021/01/18 13:01:45;;;;;;;4.57;4.13;;;7.20;99.90;;;;;;5033101;28;21113;-57
2021/01/18 13:04:11;;;;;;;4.00;3.70;;;7.40;99.90;;;;;;5032867;28;20175;-58
2021/01/18 13:06:38;;;;;;;5.50;4.20;;;7.60;99.90;;;;;;5033213;28;20200;-60
2021/01/18 13:09:12;;;;;;;5.17;3.50;;;7.50;99.90;;;;;;5033218;28;20170;-59
2021/01/18 13:11:39;;;;;;;9.00;4.63;;;7.50;99.90;;;;;;5032972;28;20419;-60
2021/01/18 13:14:05;;;;;;;3.67;3.37;;;7.10;99.90;;;;;;5033226;28;20406;-56
2021/01/18 13:16:31;;;;;;;5.10;3.73;;;6.70;99.90;;;;;;5035691;28;20445;-56